sensor_id;sensor_type;location;lat;lon;timestamp;pressure;altitude;pressure_sealevel;temperature;humidity
55576;BME280;41437;45.478;9.116;2023-01-31T00:01:27;99983.28;;;3.33;94.64
55576;BME280;41437;45.478;9.116;2023-01-31T00:04:29;99994.16;;;3.26;89.22
55576;BME280;41437;45.478;9.116;2023-01-31T00:07:31;99998.38;;;3.42;97.46
55576;BME280;41437;45.478;9.116;2023-01-31T00:10:33;100004.00;;;3.47;96.03
55576;BME280;41437;45.478;9.116;2023-01-31T00:13:36;100008.22;;;3.49;92.35
55576;BME280;41437;45.478;9.116;2023-01-31T00:16:38;100012.63;;;3.57;96.42
55576;BME280;41437;45.478;9.116;2023-01-31T00:19:40;100025.81;;;3.67;96.36
55576;BME280;41437;45.478;9.116;2023-01-31T00:22:41;100034.84;;;3.41;87.50
55576;BME280;41437;45.478;9.116;2023-01-31T00:25:43;100026.44;;;3.29;87.82
55576;BME280;41437;45.478;9.116;2023-01-31T00:28:47;100052.22;;;3.26;86.63
55576;BME280;41437;45.478;9.116;2023-01-31T00:31:49;100046.13;;;3.24;87.99
55576;BME280;41437;45.478;9.116;2023-01-31T00:34:51;100047.59;;;3.20;89.03
55576;BME280;41437;45.478;9.116;2023-01-31T00:37:53;100059.09;;;3.02;87.27
55576;BME280;41437;45.478;9.116;2023-01-31T00:40:55;100073.91;;;2.87;90.39
55576;BME280;41437;45.478;9.116;2023-01-31T00:43:59;100070.13;;;2.74;92.50
55576;BME280;41437;45.478;9.116;2023-01-31T00:47:01;100069.63;;;2.58;94.29
55576;BME280;41437;45.478;9.116;2023-01-31T00:50:03;100085.31;;;2.56;94.42
55576;BME280;41437;45.478;9.116;2023-01-31T00:53:05;100087.41;;;2.54;95.88
55576;BME280;41437;45.478;9.116;2023-01-31T00:56:08;100082.34;;;2.50;98.69
55576;BME280;41437;45.478;9.116;2023-01-31T00:59:11;100090.66;;;2.36;95.40
55576;BME280;41437;45.478;9.116;2023-01-31T01:02:13;100102.56;;;2.35;99.36
55576;BME280;41437;45.478;9.116;2023-01-31T01:05:15;100115.81;;;2.44;100.00
55576;BME280;41437;45.478;9.116;2023-01-31T01:08:16;100125.72;;;2.24;100.00
55576;BME280;41437;45.478;9.116;2023-01-31T01:11:21;100122.28;;;2.09;100.00
55576;BME280;41437;45.478;9.116;2023-01-31T01:14:24;100123.69;;;2.05;100.00
55576;BME280;41437;45.478;9.116;2023-01-31T01:17:26;100128.47;;;1.96;100.00
55576;BME280;41437;45.478;9.116;2023-01-31T01:20:28;100137.19;;;1.91;100.00
55576;BME280;41437;45.478;9.116;2023-01-31T01:23:29;100130.66;;;1.79;100.00
55576;BME280;41437;45.478;9.116;2023-01-31T01:26:32;100140.13;;;1.90;100.00
55576;BME280;41437;45.478;9.116;2023-01-31T01:29:36;100144.97;;;1.94;100.00
55576;BME280;41437;45.478;9.116;2023-01-31T01:32:38;100152.88;;;1.89;100.00
55576;BME280;41437;45.478;9.116;2023-01-31T01:35:39;100150.53;;;1.86;100.00
55576;BME280;41437;45.478;9.116;2023-01-31T01:38:41;100168.19;;;1.97;100.00
55576;BME280;41437;45.478;9.116;2023-01-31T01:41:43;100175.34;;;2.05;100.00
55576;BME280;41437;45.478;9.116;2023-01-31T01:44:50;100176.94;;;2.20;100.00
55576;BME280;41437;45.478;9.116;2023-01-31T01:47:54;100178.44;;;2.23;100.00
55576;BME280;41437;45.478;9.116;2023-01-31T01:50:57;100178.56;;;2.15;100.00
55576;BME280;41437;45.478;9.116;2023-01-31T01:54:02;100178.97;;;2.12;100.00
55576;BME280;41437;45.478;9.116;2023-01-31T01:57:06;100181.69;;;2.12;100.00
55576;BME280;41437;45.478;9.116;2023-01-31T02:00:14;100190.66;;;2.12;100.00
55576;BME280;41437;45.478;9.116;2023-01-31T02:03:16;100200.97;;;1.95;100.00
55576;BME280;41437;45.478;9.116;2023-01-31T02:06:18;100192.69;;;1.75;100.00
55576;BME280;41437;45.478;9.116;2023-01-31T02:09:25;100206.19;;;1.69;100.00
55576;BME280;41437;45.478;9.116;2023-01-31T02:12:32;100208.00;;;1.83;100.00
55576;BME280;41437;45.478;9.116;2023-01-31T02:15:36;100223.00;;;1.79;100.00
55576;BME280;41437;45.478;9.116;2023-01-31T02:18:37;100215.63;;;1.73;100.00
55576;BME280;41437;45.478;9.116;2023-01-31T02:21:56;100220.94;;;1.60;100.00
55576;BME280;41437;45.478;9.116;2023-01-31T02:25:28;100236.19;;;1.61;100.00
55576;BME280;41437;45.478;9.116;2023-01-31T02:29:11;100224.19;;;1.70;100.00
55576;BME280;41437;45.478;9.116;2023-01-31T02:32:49;100225.91;;;1.77;100.00
55576;BME280;41437;45.478;9.116;2023-01-31T02:36:00;100236.53;;;1.72;100.00
55576;BME280;41437;45.478;9.116;2023-01-31T02:39:10;100233.22;;;1.56;100.00
55576;BME280;41437;45.478;9.116;2023-01-31T02:42:19;100242.63;;;1.38;100.00
55576;BME280;41437;45.478;9.116;2023-01-31T02:45:30;100231.19;;;1.43;100.00
55576;BME280;41437;45.478;9.116;2023-01-31T02:48:42;100232.94;;;1.50;100.00
55576;BME280;41437;45.478;9.116;2023-01-31T02:51:48;100243.28;;;1.40;100.00
55576;BME280;41437;45.478;9.116;2023-01-31T02:55:16;100239.00;;;1.31;100.00
55576;BME280;41437;45.478;9.116;2023-01-31T02:58:37;100251.19;;;1.35;100.00
55576;BME280;41437;45.478;9.116;2023-01-31T03:01:43;100254.56;;;1.59;100.00
55576;BME280;41437;45.478;9.116;2023-01-31T03:04:47;100249.19;;;1.65;100.00
55576;BME280;41437;45.478;9.116;2023-01-31T03:07:51;100253.03;;;1.71;100.00
55576;BME280;41437;45.478;9.116;2023-01-31T03:10:59;100254.31;;;1.54;100.00
55576;BME280;41437;45.478;9.116;2023-01-31T03:14:09;100267.31;;;1.43;100.00
55576;BME280;41437;45.478;9.116;2023-01-31T03:17:21;100263.25;;;1.33;100.00
55576;BME280;41437;45.478;9.116;2023-01-31T03:20:38;100258.75;;;1.40;100.00
55576;BME280;41437;45.478;9.116;2023-01-31T03:23:50;100266.78;;;1.33;100.00
55576;BME280;41437;45.478;9.116;2023-01-31T03:26:52;100275.50;;;1.29;100.00
55576;BME280;41437;45.478;9.116;2023-01-31T03:30:01;100269.34;;;1.20;100.00
55576;BME280;41437;45.478;9.116;2023-01-31T03:33:09;100278.97;;;1.37;100.00
55576;BME280;41437;45.478;9.116;2023-01-31T03:36:24;100275.19;;;1.53;100.00
55576;BME280;41437;45.478;9.116;2023-01-31T03:39:30;100282.19;;;1.47;100.00
55576;BME280;41437;45.478;9.116;2023-01-31T03:42:41;100275.47;;;1.43;100.00
55576;BME280;41437;45.478;9.116;2023-01-31T03:45:49;100268.09;;;1.37;100.00
55576;BME280;41437;45.478;9.116;2023-01-31T03:48:58;100278.59;;;1.40;100.00
55576;BME280;41437;45.478;9.116;2023-01-31T03:52:06;100289.50;;;1.62;100.00
55576;BME280;41437;45.478;9.116;2023-01-31T03:55:12;100287.63;;;1.62;100.00
55576;BME280;41437;45.478;9.116;2023-01-31T03:58:17;100295.19;;;1.67;100.00
55576;BME280;41437;45.478;9.116;2023-01-31T04:01:22;100289.56;;;1.68;100.00
55576;BME280;41437;45.478;9.116;2023-01-31T04:04:27;100293.00;;;1.41;100.00
55576;BME280;41437;45.478;9.116;2023-01-31T04:07:33;100298.66;;;1.61;100.00
55576;BME280;41437;45.478;9.116;2023-01-31T04:10:35;100313.06;;;1.40;100.00
55576;BME280;41437;45.478;9.116;2023-01-31T04:13:37;100312.31;;;1.31;100.00
55576;BME280;41437;45.478;9.116;2023-01-31T04:16:39;100322.50;;;1.29;100.00
55576;BME280;41437;45.478;9.116;2023-01-31T04:19:41;100315.19;;;1.30;100.00
55576;BME280;41437;45.478;9.116;2023-01-31T04:22:46;100323.81;;;1.33;100.00
55576;BME280;41437;45.478;9.116;2023-01-31T04:25:47;100315.94;;;1.38;100.00
55576;BME280;41437;45.478;9.116;2023-01-31T04:28:50;100328.78;;;1.30;100.00
55576;BME280;41437;45.478;9.116;2023-01-31T04:31:52;100322.50;;;1.44;100.00
55576;BME280;41437;45.478;9.116;2023-01-31T04:34:53;100302.56;;;1.37;100.00
55576;BME280;41437;45.478;9.116;2023-01-31T04:37:56;100320.69;;;1.51;100.00
55576;BME280;41437;45.478;9.116;2023-01-31T04:40:58;100315.66;;;1.69;100.00
55576;BME280;41437;45.478;9.116;2023-01-31T04:43:59;100306.44;;;1.64;100.00
55576;BME280;41437;45.478;9.116;2023-01-31T04:47:01;100305.50;;;1.57;100.00
55576;BME280;41437;45.478;9.116;2023-01-31T04:50:05;100305.91;;;1.54;100.00
55576;BME280;41437;45.478;9.116;2023-01-31T04:53:08;100310.97;;;1.42;100.00
55576;BME280;41437;45.478;9.116;2023-01-31T04:56:10;100307.47;;;1.63;100.00
55576;BME280;41437;45.478;9.116;2023-01-31T04:59:12;100312.75;;;1.49;100.00
55576;BME280;41437;45.478;9.116;2023-01-31T05:02:13;100320.38;;;1.61;100.00
55576;BME280;41437;45.478;9.116;2023-01-31T05:05:15;100325.78;;;1.75;100.00
55576;BME280;41437;45.478;9.116;2023-01-31T05:08:18;100334.63;;;1.63;100.00
55576;BME280;41437;45.478;9.116;2023-01-31T05:11:19;100337.75;;;1.45;100.00
55576;BME280;41437;45.478;9.116;2023-01-31T05:14:21;100339.47;;;1.31;100.00
55576;BME280;41437;45.478;9.116;2023-01-31T05:17:23;100346.03;;;1.22;100.00
55576;BME280;41437;45.478;9.116;2023-01-31T05:20:29;100350.31;;;1.31;100.00
55576;BME280;41437;45.478;9.116;2023-01-31T05:23:32;100347.69;;;1.23;100.00
55576;BME280;41437;45.478;9.116;2023-01-31T05:26:34;100349.09;;;1.19;100.00
55576;BME280;41437;45.478;9.116;2023-01-31T05:29:36;100351.44;;;1.07;100.00
55576;BME280;41437;45.478;9.116;2023-01-31T05:32:37;100352.91;;;0.80;100.00
55576;BME280;41437;45.478;9.116;2023-01-31T05:35:40;100350.47;;;0.70;100.00
55576;BME280;41437;45.478;9.116;2023-01-31T05:38:43;100349.38;;;1.09;100.00
55576;BME280;41437;45.478;9.116;2023-01-31T05:41:47;100344.22;;;1.29;100.00
55576;BME280;41437;45.478;9.116;2023-01-31T05:44:49;100351.06;;;1.40;100.00
55576;BME280;41437;45.478;9.116;2023-01-31T05:47:50;100364.88;;;1.60;100.00
55576;BME280;41437;45.478;9.116;2023-01-31T05:50:52;100362.78;;;1.76;100.00
55576;BME280;41437;45.478;9.116;2023-01-31T05:53:55;100356.50;;;1.76;100.00
55576;BME280;41437;45.478;9.116;2023-01-31T05:56:57;100374.69;;;1.61;100.00
55576;BME280;41437;45.478;9.116;2023-01-31T05:59:59;100385.97;;;1.28;100.00
55576;BME280;41437;45.478;9.116;2023-01-31T06:03:01;100396.66;;;1.44;100.00
55576;BME280;41437;45.478;9.116;2023-01-31T06:06:03;100391.03;;;1.31;100.00
55576;BME280;41437;45.478;9.116;2023-01-31T06:09:07;100385.22;;;1.34;100.00
55576;BME280;41437;45.478;9.116;2023-01-31T06:12:11;100378.66;;;1.43;100.00
55576;BME280;41437;45.478;9.116;2023-01-31T06:15:13;100365.78;;;1.31;100.00
55576;BME280;41437;45.478;9.116;2023-01-31T06:18:15;100378.19;;;1.25;100.00
55576;BME280;41437;45.478;9.116;2023-01-31T06:21:17;100373.31;;;1.50;100.00
55576;BME280;41437;45.478;9.116;2023-01-31T06:24:20;100384.56;;;1.62;100.00
55576;BME280;41437;45.478;9.116;2023-01-31T06:27:22;100393.63;;;1.69;100.00
55576;BME280;41437;45.478;9.116;2023-01-31T06:30:23;100405.81;;;1.43;100.00
55576;BME280;41437;45.478;9.116;2023-01-31T06:33:25;100394.19;;;1.20;100.00
55576;BME280;41437;45.478;9.116;2023-01-31T06:36:27;100402.97;;;0.92;100.00
55576;BME280;41437;45.478;9.116;2023-01-31T06:39:30;100402.16;;;1.07;100.00
55576;BME280;41437;45.478;9.116;2023-01-31T06:42:32;100398.69;;;1.13;100.00
55576;BME280;41437;45.478;9.116;2023-01-31T06:45:33;100396.63;;;1.59;100.00
55576;BME280;41437;45.478;9.116;2023-01-31T06:48:36;100410.94;;;1.68;100.00
55576;BME280;41437;45.478;9.116;2023-01-31T06:51:38;100410.75;;;1.84;100.00
55576;BME280;41437;45.478;9.116;2023-01-31T06:54:41;100404.53;;;1.90;100.00
55576;BME280;41437;45.478;9.116;2023-01-31T06:57:46;100413.25;;;1.86;100.00
55576;BME280;41437;45.478;9.116;2023-01-31T07:00:48;100419.75;;;1.85;100.00
55576;BME280;41437;45.478;9.116;2023-01-31T07:03:52;100424.41;;;1.91;100.00
55576;BME280;41437;45.478;9.116;2023-01-31T07:06:56;100431.44;;;1.85;100.00
55576;BME280;41437;45.478;9.116;2023-01-31T07:09:59;100436.56;;;1.95;100.00
55576;BME280;41437;45.478;9.116;2023-01-31T07:13:01;100443.88;;;2.09;100.00
55576;BME280;41437;45.478;9.116;2023-01-31T07:16:03;100443.25;;;2.29;100.00
55576;BME280;41437;45.478;9.116;2023-01-31T07:19:05;100443.97;;;2.37;100.00
55576;BME280;41437;45.478;9.116;2023-01-31T07:22:07;100447.78;;;2.43;100.00
55576;BME280;41437;45.478;9.116;2023-01-31T07:25:10;100453.44;;;2.63;100.00
55576;BME280;41437;45.478;9.116;2023-01-31T07:28:11;100454.16;;;2.71;100.00
55576;BME280;41437;45.478;9.116;2023-01-31T07:31:14;100454.03;;;2.80;100.00
55576;BME280;41437;45.478;9.116;2023-01-31T07:34:15;100460.56;;;2.64;100.00
55576;BME280;41437;45.478;9.116;2023-01-31T07:37:18;100459.13;;;2.89;100.00
55576;BME280;41437;45.478;9.116;2023-01-31T07:40:21;100473.59;;;2.68;100.00
55576;BME280;41437;45.478;9.116;2023-01-31T07:43:23;100477.44;;;2.38;100.00
55576;BME280;41437;45.478;9.116;2023-01-31T07:46:24;100476.09;;;2.27;100.00
55576;BME280;41437;45.478;9.116;2023-01-31T07:49:26;100488.38;;;2.23;100.00
55576;BME280;41437;45.478;9.116;2023-01-31T07:52:28;100500.50;;;2.06;100.00
55576;BME280;41437;45.478;9.116;2023-01-31T07:55:31;100498.72;;;1.83;100.00
55576;BME280;41437;45.478;9.116;2023-01-31T07:58:33;100498.72;;;1.54;100.00
55576;BME280;41437;45.478;9.116;2023-01-31T08:01:35;100505.91;;;1.46;100.00
55576;BME280;41437;45.478;9.116;2023-01-31T08:04:54;100512.94;;;1.41;100.00
55576;BME280;41437;45.478;9.116;2023-01-31T08:07:56;100518.47;;;1.47;100.00
55576;BME280;41437;45.478;9.116;2023-01-31T08:11:10;100517.69;;;1.39;100.00
55576;BME280;41437;45.478;9.116;2023-01-31T08:14:12;100522.22;;;1.46;100.00
55576;BME280;41437;45.478;9.116;2023-01-31T08:17:14;100522.31;;;1.53;100.00
55576;BME280;41437;45.478;9.116;2023-01-31T08:20:16;100522.69;;;1.65;100.00
55576;BME280;41437;45.478;9.116;2023-01-31T08:23:18;100521.66;;;1.95;100.00
55576;BME280;41437;45.478;9.116;2023-01-31T08:26:22;100522.97;;;2.14;100.00
55576;BME280;41437;45.478;9.116;2023-01-31T08:29:23;100530.47;;;2.27;100.00
55576;BME280;41437;45.478;9.116;2023-01-31T08:32:25;100524.66;;;2.51;100.00
55576;BME280;41437;45.478;9.116;2023-01-31T08:35:27;100538.44;;;2.65;100.00
55576;BME280;41437;45.478;9.116;2023-01-31T08:38:28;100533.44;;;2.68;100.00
55576;BME280;41437;45.478;9.116;2023-01-31T08:41:33;100533.44;;;2.68;100.00
55576;BME280;41437;45.478;9.116;2023-01-31T08:44:34;100542.44;;;2.69;100.00
55576;BME280;41437;45.478;9.116;2023-01-31T08:47:37;100549.91;;;2.82;100.00
55576;BME280;41437;45.478;9.116;2023-01-31T08:50:39;100545.03;;;2.92;100.00
55576;BME280;41437;45.478;9.116;2023-01-31T08:53:43;100541.19;;;3.08;100.00
55576;BME280;41437;45.478;9.116;2023-01-31T08:56:46;100541.53;;;3.26;100.00
55576;BME280;41437;45.478;9.116;2023-01-31T08:59:47;100534.34;;;3.40;100.00
55576;BME280;41437;45.478;9.116;2023-01-31T09:02:53;100533.88;;;3.58;100.00
55576;BME280;41437;45.478;9.116;2023-01-31T09:05:57;100540.28;;;3.78;100.00
55576;BME280;41437;45.478;9.116;2023-01-31T09:08:59;100547.75;;;3.97;100.00
55576;BME280;41437;45.478;9.116;2023-01-31T09:12:03;100551.09;;;3.93;100.00
55576;BME280;41437;45.478;9.116;2023-01-31T09:15:06;100549.97;;;3.87;100.00
55576;BME280;41437;45.478;9.116;2023-01-31T09:18:08;100543.22;;;4.11;100.00
55576;BME280;41437;45.478;9.116;2023-01-31T09:21:11;100554.06;;;4.04;100.00
55576;BME280;41437;45.478;9.116;2023-01-31T09:24:14;100552.03;;;4.13;100.00
55576;BME280;41437;45.478;9.116;2023-01-31T09:27:16;100564.66;;;4.21;100.00
55576;BME280;41437;45.478;9.116;2023-01-31T09:30:19;100563.00;;;4.26;100.00
55576;BME280;41437;45.478;9.116;2023-01-31T09:33:21;100573.72;;;4.28;100.00
55576;BME280;41437;45.478;9.116;2023-01-31T09:36:23;100575.63;;;4.34;100.00
55576;BME280;41437;45.478;9.116;2023-01-31T09:39:25;100583.72;;;4.49;99.19
55576;BME280;41437;45.478;9.116;2023-01-31T09:42:30;100581.25;;;4.74;97.94
55576;BME280;41437;45.478;9.116;2023-01-31T09:45:35;100581.31;;;4.81;97.86
55576;BME280;41437;45.478;9.116;2023-01-31T09:48:38;100587.84;;;4.99;96.08
55576;BME280;41437;45.478;9.116;2023-01-31T09:51:42;100577.59;;;5.01;95.04
55576;BME280;41437;45.478;9.116;2023-01-31T09:54:44;100578.41;;;5.02;94.65
55576;BME280;41437;45.478;9.116;2023-01-31T09:57:52;100583.03;;;5.01;95.44
55576;BME280;41437;45.478;9.116;2023-01-31T10:01:03;100580.72;;;4.98;95.95
55576;BME280;41437;45.478;9.116;2023-01-31T10:04:31;100588.72;;;5.13;96.09
55576;BME280;41437;45.478;9.116;2023-01-31T10:07:37;100599.03;;;5.11;95.79
55576;BME280;41437;45.478;9.116;2023-01-31T10:10:44;100596.09;;;5.19;94.34
55576;BME280;41437;45.478;9.116;2023-01-31T10:13:53;100597.75;;;5.07;95.00
55576;BME280;41437;45.478;9.116;2023-01-31T10:17:04;100587.50;;;5.22;95.35
55576;BME280;41437;45.478;9.116;2023-01-31T10:20:12;100592.75;;;5.24;95.61
55576;BME280;41437;45.478;9.116;2023-01-31T10:23:23;100591.91;;;5.30;95.53
55576;BME280;41437;45.478;9.116;2023-01-31T10:26:28;100586.69;;;5.62;94.38
55576;BME280;41437;45.478;9.116;2023-01-31T10:29:34;100589.00;;;5.58;94.06
55576;BME280;41437;45.478;9.116;2023-01-31T10:32:39;100592.16;;;5.62;91.89
55576;BME280;41437;45.478;9.116;2023-01-31T10:35:44;100598.66;;;5.47;93.35
55576;BME280;41437;45.478;9.116;2023-01-31T10:38:51;100594.88;;;5.48;94.59
55576;BME280;41437;45.478;9.116;2023-01-31T10:42:14;100588.16;;;5.64;93.97
55576;BME280;41437;45.478;9.116;2023-01-31T10:45:25;100583.50;;;5.78;92.71
55576;BME280;41437;45.478;9.116;2023-01-31T10:48:30;100582.69;;;5.84;93.40
55576;BME280;41437;45.478;9.116;2023-01-31T10:51:42;100568.56;;;5.87;92.81
55576;BME280;41437;45.478;9.116;2023-01-31T10:54:53;100571.31;;;6.00;92.83
55576;BME280;41437;45.478;9.116;2023-01-31T10:57:59;100569.63;;;6.19;92.58
55576;BME280;41437;45.478;9.116;2023-01-31T11:01:04;100550.59;;;6.38;91.19
55576;BME280;41437;45.478;9.116;2023-01-31T11:04:23;100543.31;;;6.18;91.61
55576;BME280;41437;45.478;9.116;2023-01-31T11:07:28;100541.78;;;6.29;91.33
55576;BME280;41437;45.478;9.116;2023-01-31T11:10:31;100546.66;;;6.27;91.19
55576;BME280;41437;45.478;9.116;2023-01-31T11:13:33;100537.56;;;6.33;91.21
55576;BME280;41437;45.478;9.116;2023-01-31T11:16:37;100540.91;;;6.35;92.72
55576;BME280;41437;45.478;9.116;2023-01-31T11:19:43;100534.16;;;6.44;91.79
55576;BME280;41437;45.478;9.116;2023-01-31T11:22:47;100534.72;;;6.60;92.47
55576;BME280;41437;45.478;9.116;2023-01-31T11:25:50;100518.47;;;6.65;91.88
55576;BME280;41437;45.478;9.116;2023-01-31T11:28:53;100533.00;;;6.65;91.17
55576;BME280;41437;45.478;9.116;2023-01-31T11:31:57;100528.59;;;6.64;91.46
55576;BME280;41437;45.478;9.116;2023-01-31T11:35:03;100523.94;;;6.65;90.67
55576;BME280;41437;45.478;9.116;2023-01-31T11:38:19;100523.94;;;6.65;92.42
55576;BME280;41437;45.478;9.116;2023-01-31T11:41:27;100516.72;;;6.77;90.28
55576;BME280;41437;45.478;9.116;2023-01-31T11:44:31;100503.78;;;6.91;90.19
55576;BME280;41437;45.478;9.116;2023-01-31T11:47:41;100506.53;;;6.91;90.53
55576;BME280;41437;45.478;9.116;2023-01-31T11:50:45;100502.50;;;6.93;89.24
55576;BME280;41437;45.478;9.116;2023-01-31T11:53:52;100495.06;;;7.00;88.53
55576;BME280;41437;45.478;9.116;2023-01-31T11:56:54;100501.91;;;7.16;86.44
55576;BME280;41437;45.478;9.116;2023-01-31T11:59:58;100498.19;;;7.11;85.23
55576;BME280;41437;45.478;9.116;2023-01-31T12:03:03;100500.25;;;7.15;84.81
55576;BME280;41437;45.478;9.116;2023-01-31T12:06:08;100500.75;;;7.30;84.83
55576;BME280;41437;45.478;9.116;2023-01-31T12:09:19;100488.44;;;7.40;85.92
55576;BME280;41437;45.478;9.116;2023-01-31T12:12:26;100487.56;;;7.46;85.76
55576;BME280;41437;45.478;9.116;2023-01-31T12:15:29;100489.09;;;7.60;84.57
55576;BME280;41437;45.478;9.116;2023-01-31T12:18:54;100477.59;;;7.70;84.87
55576;BME280;41437;45.478;9.116;2023-01-31T12:22:02;100468.50;;;7.94;80.38
55576;BME280;41437;45.478;9.116;2023-01-31T12:25:13;100449.28;;;7.94;80.12
55576;BME280;41437;45.478;9.116;2023-01-31T12:28:27;100457.53;;;7.94;79.48
55576;BME280;41437;45.478;9.116;2023-01-31T12:31:43;100456.13;;;8.03;79.33
55576;BME280;41437;45.478;9.116;2023-01-31T12:35:06;100447.06;;;8.21;78.04
55576;BME280;41437;45.478;9.116;2023-01-31T12:38:20;100443.03;;;8.24;76.57
55576;BME280;41437;45.478;9.116;2023-01-31T12:41:31;100434.91;;;8.29;76.73
55576;BME280;41437;45.478;9.116;2023-01-31T12:44:41;100440.16;;;8.30;75.98
55576;BME280;41437;45.478;9.116;2023-01-31T12:48:20;100431.25;;;8.35;74.59
55576;BME280;41437;45.478;9.116;2023-01-31T12:51:35;100422.00;;;8.48;73.15
55576;BME280;41437;45.478;9.116;2023-01-31T12:54:48;100411.78;;;8.55;74.87
55576;BME280;41437;45.478;9.116;2023-01-31T12:58:02;100410.13;;;8.66;74.79
55576;BME280;41437;45.478;9.116;2023-01-31T13:01:08;100403.97;;;8.82;74.36
55576;BME280;41437;45.478;9.116;2023-01-31T13:04:29;100403.00;;;8.76;75.47
55576;BME280;41437;45.478;9.116;2023-01-31T13:07:39;100398.09;;;8.78;70.99
55576;BME280;41437;45.478;9.116;2023-01-31T13:10:44;100396.56;;;8.82;71.42
55576;BME280;41437;45.478;9.116;2023-01-31T13:13:49;100394.63;;;8.71;72.25
55576;BME280;41437;45.478;9.116;2023-01-31T13:16:57;100395.56;;;8.65;71.00
55576;BME280;41437;45.478;9.116;2023-01-31T13:20:04;100391.53;;;8.68;70.84
55576;BME280;41437;45.478;9.116;2023-01-31T13:23:12;100387.22;;;8.72;69.25
55576;BME280;41437;45.478;9.116;2023-01-31T13:26:19;100381.75;;;8.72;68.64
55576;BME280;41437;45.478;9.116;2023-01-31T13:29:25;100386.28;;;8.78;70.00
55576;BME280;41437;45.478;9.116;2023-01-31T13:32:33;100375.91;;;8.92;69.15
55576;BME280;41437;45.478;9.116;2023-01-31T13:35:39;100374.44;;;8.77;71.42
55576;BME280;41437;45.478;9.116;2023-01-31T13:38:45;100370.63;;;8.78;71.38
55576;BME280;41437;45.478;9.116;2023-01-31T13:41:48;100374.56;;;8.71;72.30
55576;BME280;41437;45.478;9.116;2023-01-31T13:44:51;100357.13;;;8.77;73.52
55576;BME280;41437;45.478;9.116;2023-01-31T13:47:59;100358.34;;;8.81;73.18
55576;BME280;41437;45.478;9.116;2023-01-31T13:51:05;100357.16;;;8.89;71.78
55576;BME280;41437;45.478;9.116;2023-01-31T13:54:16;100353.91;;;8.80;71.03
55576;BME280;41437;45.478;9.116;2023-01-31T13:57:23;100354.00;;;8.73;70.40
55576;BME280;41437;45.478;9.116;2023-01-31T14:00:35;100355.94;;;8.73;70.39
55576;BME280;41437;45.478;9.116;2023-01-31T14:07:19;100350.56;;;8.78;71.38
55576;BME280;41437;45.478;9.116;2023-01-31T14:10:27;100350.09;;;8.81;71.39
55576;BME280;41437;45.478;9.116;2023-01-31T14:13:41;100347.94;;;8.83;70.10
55576;BME280;41437;45.478;9.116;2023-01-31T14:16:43;100343.50;;;8.82;68.90
55576;BME280;41437;45.478;9.116;2023-01-31T14:20:01;100340.31;;;8.85;68.90
55576;BME280;41437;45.478;9.116;2023-01-31T14:23:27;100346.72;;;8.79;67.71
55576;BME280;41437;45.478;9.116;2023-01-31T14:26:33;100343.16;;;8.78;67.97
55576;BME280;41437;45.478;9.116;2023-01-31T14:29:40;100346.00;;;8.84;66.81
55576;BME280;41437;45.478;9.116;2023-01-31T14:32:45;100335.53;;;8.80;67.99
55576;BME280;41437;45.478;9.116;2023-01-31T14:36:17;100339.22;;;8.86;67.60
55576;BME280;41437;45.478;9.116;2023-01-31T14:39:57;100332.75;;;8.92;67.37
55576;BME280;41437;45.478;9.116;2023-01-31T14:43:20;100332.53;;;8.82;67.49
55576;BME280;41437;45.478;9.116;2023-01-31T14:46:48;100335.53;;;8.80;68.70
55576;BME280;41437;45.478;9.116;2023-01-31T14:50:36;100336.13;;;8.94;68.78
55576;BME280;41437;45.478;9.116;2023-01-31T14:54:00;100329.44;;;8.90;68.33
55576;BME280;41437;45.478;9.116;2023-01-31T14:57:12;100320.34;;;8.90;66.86
55576;BME280;41437;45.478;9.116;2023-01-31T15:00:19;100321.56;;;9.05;68.09
55576;BME280;41437;45.478;9.116;2023-01-31T15:03:24;100322.03;;;8.91;67.71
55576;BME280;41437;45.478;9.116;2023-01-31T15:06:27;100321.41;;;8.77;69.11
55576;BME280;41437;45.478;9.116;2023-01-31T15:09:38;100315.56;;;8.85;68.00
55576;BME280;41437;45.478;9.116;2023-01-31T15:12:53;100329.88;;;8.64;69.02
55576;BME280;41437;45.478;9.116;2023-01-31T15:15:57;100320.78;;;8.51;70.86
55576;BME280;41437;45.478;9.116;2023-01-31T15:19:05;100326.38;;;8.45;70.53
55576;BME280;41437;45.478;9.116;2023-01-31T15:22:08;100324.16;;;8.35;70.77
55576;BME280;41437;45.478;9.116;2023-01-31T15:25:22;100320.97;;;8.38;72.62
55576;BME280;41437;45.478;9.116;2023-01-31T15:28:27;100325.41;;;8.39;71.55
55576;BME280;41437;45.478;9.116;2023-01-31T15:31:35;100325.69;;;8.49;70.68
55576;BME280;41437;45.478;9.116;2023-01-31T15:34:47;100318.84;;;8.40;71.21
55576;BME280;41437;45.478;9.116;2023-01-31T15:37:55;100315.25;;;8.40;72.01
55576;BME280;41437;45.478;9.116;2023-01-31T15:41:15;100300.41;;;8.29;72.15
55576;BME280;41437;45.478;9.116;2023-01-31T15:44:20;100295.47;;;8.19;72.17
55576;BME280;41437;45.478;9.116;2023-01-31T15:47:23;100300.53;;;8.04;73.04
55576;BME280;41437;45.478;9.116;2023-01-31T15:50:27;100307.19;;;7.96;74.18
55576;BME280;41437;45.478;9.116;2023-01-31T15:53:29;100313.06;;;8.00;75.40
55576;BME280;41437;45.478;9.116;2023-01-31T15:56:34;100298.38;;;7.94;75.35
55576;BME280;41437;45.478;9.116;2023-01-31T15:59:45;100296.88;;;7.80;78.39
55576;BME280;41437;45.478;9.116;2023-01-31T16:02:49;100297.75;;;7.62;77.44
55576;BME280;41437;45.478;9.116;2023-01-31T16:06:00;100295.28;;;7.72;76.72
55576;BME280;41437;45.478;9.116;2023-01-31T16:09:04;100292.16;;;7.69;79.70
55576;BME280;41437;45.478;9.116;2023-01-31T16:12:09;100296.91;;;7.43;79.07
55576;BME280;41437;45.478;9.116;2023-01-31T16:15:17;100308.88;;;7.49;79.16
55576;BME280;41437;45.478;9.116;2023-01-31T16:18:23;100314.28;;;7.37;79.17
55576;BME280;41437;45.478;9.116;2023-01-31T16:21:28;100314.72;;;7.16;81.42
55576;BME280;41437;45.478;9.116;2023-01-31T16:24:31;100319.63;;;7.32;80.60